MSC Maureen — HPMP — position and weather

sailwx.info

Track history (hours):
 
Tides and Currents Weather Stations Pressure Air Temp Water Temp Dewpoint Dewpoint Depression Visibility Wind Speed Wind Dir Waves Ship Positions

MSC Maureen

Last reported at 2017-Sep-21 08:43 UTC. Time now 2017-Sep-25 13:38 UTC.
Position S 23°57' W 046°19'.

; draft 10.7 m.

Type: Ship. MMSI: 355216000.

Date/timePositionNaut miles runAvg speedWind from/ knotsBaromVisibWave heightAir tempDewpointWater temp
2017-Sep-21 08:43S 23°57' W 046°19'2 8.4
2017-Sep-21 08:29S 23°58' W 046°17'3 6.4
2017-Sep-21 07:59S 24°00' W 046°20'4 9.4
2017-Sep-21 07:30S 24°04' W 046°22'4 8.1
2017-Sep-21 07:00S 24°09' W 046°21'4 8.2
2017-Sep-21 06:30S 24°12' W 046°19'0 0.2
2017-Sep-21 05:14S 24°12' W 046°19'0 0.0
2017-Sep-21 04:56S 24°12' W 046°19'0 0.0
2017-Sep-20 23:06S 24°12' W 046°19'0 0.1
2017-Sep-20 22:47S 24°12' W 046°19'0 0.0
2017-Sep-20 22:17S 24°12' W 046°19'0 0.0
2017-Sep-20 20:10S 24°12' W 046°19'0 0.0
2017-Sep-20 13:50S 24°12' W 046°19'0 0.0
2017-Sep-20 09:42S 24°12' W 046°19'0 0.1
2017-Sep-20 09:24S 24°12' W 046°19'0 0.0
2017-Sep-20 02:15S 24°12' W 046°19'0 0.0
2017-Sep-20 01:50S 24°12' W 046°19'0 0.1
2017-Sep-20 01:26S 24°12' W 046°19'2 5.3
2017-Sep-20 00:58S 24°13' W 046°21'816.3
2017-Sep-20 00:30S 24°19' W 046°27'917.9
2017-Sep-20 00:00S 24°27' W 046°31'1017.8
2017-Sep-19 23:26S 24°35' W 046°37'  
Track history (hours):
 
Tides and Currents Weather Stations Pressure Air Temp Water Temp Dewpoint Dewpoint Depression Visibility Wind Speed Wind Dir Waves Ship Positions

MSC Maureen

Last reported at 2017-Sep-21 08:43 UTC. Time now 2017-Sep-25 13:38 UTC.
Position S 23°57' W 046°19'.

; draft 10.7 m.

Type: Ship. MMSI: 355216000.

Date/timePositionNaut miles runAvg speedWind from/ knotsBaromVisibWave heightAir tempDewpointWater temp
2017-Sep-21 08:43S 23°57' W 046°19'2 8.4
2017-Sep-21 08:29S 23°58' W 046°17'3 6.4
2017-Sep-21 07:59S 24°00' W 046°20'4 9.4
2017-Sep-21 07:30S 24°04' W 046°22'4 8.1
2017-Sep-21 07:00S 24°09' W 046°21'4 8.2
2017-Sep-21 06:30S 24°12' W 046°19'0 0.2
2017-Sep-21 05:14S 24°12' W 046°19'0 0.0
2017-Sep-21 04:56S 24°12' W 046°19'0 0.0
2017-Sep-20 23:06S 24°12' W 046°19'0 0.1
2017-Sep-20 22:47S 24°12' W 046°19'0 0.0
2017-Sep-20 22:17S 24°12' W 046°19'0 0.0
2017-Sep-20 20:10S 24°12' W 046°19'0 0.0
2017-Sep-20 13:50S 24°12' W 046°19'0 0.0
2017-Sep-20 09:42S 24°12' W 046°19'0 0.1
2017-Sep-20 09:24S 24°12' W 046°19'0 0.0
2017-Sep-20 02:15S 24°12' W 046°19'0 0.0
2017-Sep-20 01:50S 24°12' W 046°19'0 0.1
2017-Sep-20 01:26S 24°12' W 046°19'2 5.3
2017-Sep-20 00:58S 24°13' W 046°21'816.3
2017-Sep-20 00:30S 24°19' W 046°27'917.9
2017-Sep-20 00:00S 24°27' W 046°31'1017.8
2017-Sep-19 23:26S 24°35' W 046°37'  

Dump ship's entire track history